CheckWX is a tool to help pilots better visualize weather data.  It is not intended as a substitute for an official pre-flight weather briefing.

07:36:01 UTC

KBUF METAR
Buffalo Niagara International Airport
Buffalo, New York, USA
Current

42 mins ago

KBUF 210654Z 25006KT 10SM FEW046 07/04 A3005 RMK AO2 SLP179 T00670039
Observed
May-21 @ 06:54 UTC
Wind
  • 250° at 6 KTS
Visibility
10 SM
Flight Rules
VFR
Cloud Levels
  • Few at 4,600' AGL
Temperature
C / 45°F
Dewpoint
C / 39°F
Humidity
81%
Altimeter
30.05" Hg
Pressure
1017.62 hPa
Previous

2 hours ago

KBUF 210554Z 28006KT 10SM FEW028 SCT047 07/04 A3005 RMK AO2 SLP177 T00720039 10117 20072 53007
Observed
May-21 @ 05:54 UTC
Wind
  • 280° at 6 KTS
Visibility
10 SM
Flight Rules
VFR
Cloud Levels
  • Few at 2,800' AGL
  • Scattered at 4,700' AGL
Temperature
C / 45°F
Dewpoint
C / 39°F
Humidity
81%
Altimeter
30.05" Hg
Pressure
1017.62 hPa
Previous

3 hours ago

KBUF 210454Z 28006KT 10SM BKN030 BKN050 08/04 A3004 RMK AO2 SLP174 T00830039 401940083
Observed
May-21 @ 04:54 UTC
Wind
  • 280° at 6 KTS
Visibility
10 SM
Flight Rules
MVFR
Cloud Levels
  • Broken at 3,000' AGL
  • Broken at 5,000' AGL
Temperature
C / 46°F
Dewpoint
C / 39°F
Humidity
76%
Altimeter
30.04" Hg
Pressure
1017.32 hPa